sensor_id;sensor_type;location;lat;lon;timestamp;pressure;altitude;pressure_sealevel;temperature;humidity
70954;BME280;58618;47.490;8.736;2024-01-30T00:00:48;97987.78;;;-0.57;100.00
70954;BME280;58618;47.490;8.736;2024-01-30T00:03:35;97993.69;;;-0.64;100.00
70954;BME280;58618;47.490;8.736;2024-01-30T00:06:23;97992.78;;;-0.40;100.00
70954;BME280;58618;47.490;8.736;2024-01-30T00:09:10;97996.31;;;-0.50;100.00
70954;BME280;58618;47.490;8.736;2024-01-30T00:11:58;97991.47;;;-0.36;100.00
70954;BME280;58618;47.490;8.736;2024-01-30T00:14:47;97992.13;;;-0.34;100.00
70954;BME280;58618;47.490;8.736;2024-01-30T00:17:34;97993.63;;;-0.17;100.00
70954;BME280;58618;47.490;8.736;2024-01-30T00:20:22;97986.09;;;-0.33;100.00
70954;BME280;58618;47.490;8.736;2024-01-30T00:23:09;97991.63;;;-0.30;100.00
70954;BME280;58618;47.490;8.736;2024-01-30T00:25:57;97966.06;;;-0.51;100.00
70954;BME280;58618;47.490;8.736;2024-01-30T00:28:44;97977.84;;;-0.35;100.00
70954;BME280;58618;47.490;8.736;2024-01-30T00:31:33;97993.91;;;-0.12;100.00
70954;BME280;58618;47.490;8.736;2024-01-30T00:34:20;97992.75;;;-0.32;100.00
70954;BME280;58618;47.490;8.736;2024-01-30T00:37:07;97993.44;;;-0.47;100.00
70954;BME280;58618;47.490;8.736;2024-01-30T00:39:55;97997.25;;;-0.43;100.00
70954;BME280;58618;47.490;8.736;2024-01-30T00:42:43;97991.31;;;-0.66;100.00
70954;BME280;58618;47.490;8.736;2024-01-30T00:45:30;97998.94;;;-0.74;100.00
70954;BME280;58618;47.490;8.736;2024-01-30T00:48:19;98002.03;;;-0.56;100.00
70954;BME280;58618;47.490;8.736;2024-01-30T00:51:06;97987.69;;;-0.71;100.00
70954;BME280;58618;47.490;8.736;2024-01-30T00:53:53;98003.03;;;-0.65;100.00
70954;BME280;58618;47.490;8.736;2024-01-30T00:56:41;97995.31;;;-0.40;100.00
70954;BME280;58618;47.490;8.736;2024-01-30T00:59:28;97994.13;;;-0.61;100.00
70954;BME280;58618;47.490;8.736;2024-01-30T01:02:16;98001.50;;;-0.82;100.00
70954;BME280;58618;47.490;8.736;2024-01-30T01:05:05;98001.84;;;-0.93;100.00
70954;BME280;58618;47.490;8.736;2024-01-30T01:07:53;97994.28;;;-1.09;100.00
70954;BME280;58618;47.490;8.736;2024-01-30T01:10:40;98003.16;;;-1.13;100.00
70954;BME280;58618;47.490;8.736;2024-01-30T01:13:28;98009.63;;;-1.11;100.00
70954;BME280;58618;47.490;8.736;2024-01-30T01:16:15;98007.25;;;-1.04;100.00
70954;BME280;58618;47.490;8.736;2024-01-30T01:19:02;98013.06;;;-0.88;100.00
70954;BME280;58618;47.490;8.736;2024-01-30T01:21:52;98010.19;;;-0.85;100.00
70954;BME280;58618;47.490;8.736;2024-01-30T01:24:39;97990.38;;;-0.73;100.00
70954;BME280;58618;47.490;8.736;2024-01-30T01:27:27;98003.84;;;-0.72;100.00
70954;BME280;58618;47.490;8.736;2024-01-30T01:30:14;98006.41;;;-0.89;100.00
70954;BME280;58618;47.490;8.736;2024-01-30T01:33:07;97996.03;;;-0.63;100.00
70954;BME280;58618;47.490;8.736;2024-01-30T01:35:55;98003.69;;;-0.71;100.00
70954;BME280;58618;47.490;8.736;2024-01-30T01:38:44;97996.78;;;-0.85;100.00
70954;BME280;58618;47.490;8.736;2024-01-30T01:41:32;97999.25;;;-0.77;100.00
70954;BME280;58618;47.490;8.736;2024-01-30T01:44:19;97988.69;;;-0.80;100.00
70954;BME280;58618;47.490;8.736;2024-01-30T01:47:06;97999.25;;;-0.77;100.00
70954;BME280;58618;47.490;8.736;2024-01-30T01:49:54;97995.09;;;-0.62;100.00
70954;BME280;58618;47.490;8.736;2024-01-30T01:52:41;97982.16;;;-0.75;100.00
70954;BME280;58618;47.490;8.736;2024-01-30T01:55:30;97989.13;;;-0.77;100.00
70954;BME280;58618;47.490;8.736;2024-01-30T01:58:19;97990.31;;;-0.96;100.00
70954;BME280;58618;47.490;8.736;2024-01-30T02:01:08;97990.91;;;-0.86;100.00
70954;BME280;58618;47.490;8.736;2024-01-30T02:03:55;97989.72;;;-0.67;100.00
70954;BME280;58618;47.490;8.736;2024-01-30T02:06:43;97991.31;;;-0.66;100.00
70954;BME280;58618;47.490;8.736;2024-01-30T02:09:31;97998.28;;;-0.68;100.00
70954;BME280;58618;47.490;8.736;2024-01-30T02:12:19;97998.28;;;-0.68;100.00
70954;BME280;58618;47.490;8.736;2024-01-30T02:15:07;98003.16;;;-1.13;100.00
70954;BME280;58618;47.490;8.736;2024-01-30T02:17:54;97992.59;;;-1.33;100.00
70954;BME280;58618;47.490;8.736;2024-01-30T02:20:42;98006.34;;;-1.36;100.00
70954;BME280;58618;47.490;8.736;2024-01-30T02:23:32;98003.19;;;-1.30;100.00
70954;BME280;58618;47.490;8.736;2024-01-30T02:26:20;98007.59;;;-1.32;100.00
70954;BME280;58618;47.490;8.736;2024-01-30T02:29:08;97996.53;;;-1.31;100.00
70954;BME280;58618;47.490;8.736;2024-01-30T02:31:55;98001.31;;;-1.44;100.00
70954;BME280;58618;47.490;8.736;2024-01-30T02:34:42;98002.53;;;-1.32;100.00
70954;BME280;58618;47.490;8.736;2024-01-30T02:37:30;97992.59;;;-1.33;100.00
70954;BME280;58618;47.490;8.736;2024-01-30T02:40:19;97994.34;;;-1.42;100.00
70954;BME280;58618;47.490;8.736;2024-01-30T02:43:06;98001.63;;;-1.47;100.00
70954;BME280;58618;47.490;8.736;2024-01-30T02:45:53;97998.16;;;-1.54;100.00
70954;BME280;58618;47.490;8.736;2024-01-30T02:48:41;97996.88;;;-1.42;100.00
70954;BME280;58618;47.490;8.736;2024-01-30T02:51:28;97988.81;;;-1.61;100.00
70954;BME280;58618;47.490;8.736;2024-01-30T02:54:15;97993.09;;;-1.62;100.00
70954;BME280;58618;47.490;8.736;2024-01-30T02:57:04;97993.53;;;-1.58;100.00
70954;BME280;58618;47.490;8.736;2024-01-30T02:59:51;97987.56;;;-1.57;100.00
70954;BME280;58618;47.490;8.736;2024-01-30T03:02:39;97983.59;;;-1.52;100.00
70954;BME280;58618;47.490;8.736;2024-01-30T03:05:26;97986.75;;;-1.50;100.00
70954;BME280;58618;47.490;8.736;2024-01-30T03:08:14;97982.31;;;-1.23;100.00
70954;BME280;58618;47.490;8.736;2024-01-30T03:11:01;97987.72;;;-1.67;100.00
70954;BME280;58618;47.490;8.736;2024-01-30T03:13:50;97985.19;;;-1.75;100.00
70954;BME280;58618;47.490;8.736;2024-01-30T03:16:37;97986.13;;;-1.60;100.00
70954;BME280;58618;47.490;8.736;2024-01-30T03:19:25;97982.03;;;-1.61;100.00
70954;BME280;58618;47.490;8.736;2024-01-30T03:22:12;97975.06;;;-1.51;100.00
70954;BME280;58618;47.490;8.736;2024-01-30T03:25:00;97974.72;;;-1.48;100.00
70954;BME280;58618;47.490;8.736;2024-01-30T03:27:47;97974.78;;;-1.64;100.00
70954;BME280;58618;47.490;8.736;2024-01-30T03:30:36;97976.03;;;-1.76;100.00
70954;BME280;58618;47.490;8.736;2024-01-30T03:33:23;97978.84;;;-1.79;100.00
70954;BME280;58618;47.490;8.736;2024-01-30T03:36:11;97982.97;;;-1.62;100.00
70954;BME280;58618;47.490;8.736;2024-01-30T03:38:58;97984.56;;;-1.77;100.00
70954;BME280;58618;47.490;8.736;2024-01-30T03:41:46;97986.75;;;-1.82;100.00
70954;BME280;58618;47.490;8.736;2024-01-30T03:44:33;97985.66;;;-1.72;100.00
70954;BME280;58618;47.490;8.736;2024-01-30T03:47:21;97983.59;;;-1.76;100.00
70954;BME280;58618;47.490;8.736;2024-01-30T03:50:09;97972.56;;;-1.75;100.00
70954;BME280;58618;47.490;8.736;2024-01-30T03:52:57;97985.19;;;-1.67;100.00
70954;BME280;58618;47.490;8.736;2024-01-30T03:55:44;97984.88;;;-1.72;100.00
70954;BME280;58618;47.490;8.736;2024-01-30T03:58:31;97981.41;;;-1.71;100.00
70954;BME280;58618;47.490;8.736;2024-01-30T04:01:19;97980.59;;;-1.63;100.00
70954;BME280;58618;47.490;8.736;2024-01-30T04:04:07;97988.03;;;-1.54;100.00
70954;BME280;58618;47.490;8.736;2024-01-30T04:06:55;97948.53;;;-1.87;100.00
70954;BME280;58618;47.490;8.736;2024-01-30T04:09:42;97978.53;;;-1.52;100.00
70954;BME280;58618;47.490;8.736;2024-01-30T04:12:29;97976.66;;;-1.50;100.00
70954;BME280;58618;47.490;8.736;2024-01-30T04:15:17;97981.06;;;-1.52;100.00
70954;BME280;58618;47.490;8.736;2024-01-30T04:18:04;97973.44;;;-1.36;100.00
70954;BME280;58618;47.490;8.736;2024-01-30T04:20:54;97982.75;;;-1.20;100.00
70954;BME280;58618;47.490;8.736;2024-01-30T04:23:41;97990.22;;;-1.35;100.00
70954;BME280;58618;47.490;8.736;2024-01-30T04:26:29;97995.28;;;-1.35;100.00
70954;BME280;58618;47.490;8.736;2024-01-30T04:29:16;97986.75;;;-1.34;100.00
70954;BME280;58618;47.490;8.736;2024-01-30T04:32:04;97985.63;;;-1.31;100.00
70954;BME280;58618;47.490;8.736;2024-01-30T04:34:51;97985.44;;;-1.21;100.00
70954;BME280;58618;47.490;8.736;2024-01-30T04:37:40;97985.63;;;-1.47;100.00
70954;BME280;58618;47.490;8.736;2024-01-30T04:40:27;97981.72;;;-1.50;100.00
70954;BME280;58618;47.490;8.736;2024-01-30T04:43:15;97992.91;;;-1.52;100.00
70954;BME280;58618;47.490;8.736;2024-01-30T04:46:04;97986.59;;;-1.56;100.00
70954;BME280;58618;47.490;8.736;2024-01-30T04:48:51;97985.81;;;-1.65;100.00
70954;BME280;58618;47.490;8.736;2024-01-30T04:51:38;97994.66;;;-1.77;100.00
70954;BME280;58618;47.490;8.736;2024-01-30T04:54:27;97987.72;;;-1.75;100.00
70954;BME280;58618;47.490;8.736;2024-01-30T04:57:14;97984.25;;;-1.82;100.00
70954;BME280;58618;47.490;8.736;2024-01-30T05:00:02;97988.03;;;-1.78;100.00
70954;BME280;58618;47.490;8.736;2024-01-30T05:02:51;97985.31;;;-1.85;100.00
70954;BME280;58618;47.490;8.736;2024-01-30T05:05:38;97986.13;;;-1.84;100.00
70954;BME280;58618;47.490;8.736;2024-01-30T05:08:26;97990.41;;;-1.77;100.00
70954;BME280;58618;47.490;8.736;2024-01-30T05:11:15;97988.66;;;-1.84;100.00
70954;BME280;58618;47.490;8.736;2024-01-30T05:14:02;97996.56;;;-1.79;100.00
70954;BME280;58618;47.490;8.736;2024-01-30T05:16:49;97998.75;;;-1.84;100.00
70954;BME280;58618;47.490;8.736;2024-01-30T05:19:37;98005.09;;;-1.72;100.00
70954;BME280;58618;47.490;8.736;2024-01-30T05:22:24;97995.94;;;-1.73;100.00
70954;BME280;58618;47.490;8.736;2024-01-30T05:25:12;98002.25;;;-1.69;100.00
70954;BME280;58618;47.490;8.736;2024-01-30T05:28:01;98000.34;;;-1.83;100.00
70954;BME280;58618;47.490;8.736;2024-01-30T05:30:48;97998.75;;;-1.84;100.00
70954;BME280;58618;47.490;8.736;2024-01-30T05:33:36;97996.88;;;-1.82;100.00
70954;BME280;58618;47.490;8.736;2024-01-30T05:36:23;98006.03;;;-1.97;100.00
70954;BME280;58618;47.490;8.736;2024-01-30T05:39:10;98000.03;;;-1.88;100.00
70954;BME280;58618;47.490;8.736;2024-01-30T05:41:58;98000.69;;;-1.86;100.00
70954;BME280;58618;47.490;8.736;2024-01-30T05:44:47;97997.50;;;-1.88;100.00
70954;BME280;58618;47.490;8.736;2024-01-30T05:47:35;98017.41;;;-1.69;100.00
70954;BME280;58618;47.490;8.736;2024-01-30T05:50:22;98016.00;;;-1.72;100.00
70954;BME280;58618;47.490;8.736;2024-01-30T05:53:11;98015.34;;;-1.90;100.00
70954;BME280;58618;47.490;8.736;2024-01-30T05:55:59;98023.75;;;-1.81;100.00
70954;BME280;58618;47.490;8.736;2024-01-30T05:58:47;98011.09;;;-1.89;100.00
70954;BME280;58618;47.490;8.736;2024-01-30T06:01:45;98010.78;;;-1.86;100.00
70954;BME280;58618;47.490;8.736;2024-01-30T06:04:33;98013.28;;;-1.94;100.00
70954;BME280;58618;47.490;8.736;2024-01-30T06:07:20;98004.44;;;-2.06;100.00
70954;BME280;58618;47.490;8.736;2024-01-30T06:10:08;98002.53;;;-2.04;100.00
70954;BME280;58618;47.490;8.736;2024-01-30T06:12:56;98012.31;;;-2.09;100.00
70954;BME280;58618;47.490;8.736;2024-01-30T06:15:43;98021.06;;;-1.96;100.00
70954;BME280;58618;47.490;8.736;2024-01-30T06:18:32;98012.66;;;-2.04;100.00
70954;BME280;58618;47.490;8.736;2024-01-30T06:21:19;98022.94;;;-1.98;100.00
70954;BME280;58618;47.490;8.736;2024-01-30T06:24:07;98012.97;;;-2.07;100.00
70954;BME280;58618;47.490;8.736;2024-01-30T06:26:54;98019.63;;;-1.90;100.00
70954;BME280;58618;47.490;8.736;2024-01-30T06:29:43;98026.56;;;-1.92;100.00
70954;BME280;58618;47.490;8.736;2024-01-30T06:32:30;98028.78;;;-1.97;100.00
70954;BME280;58618;47.490;8.736;2024-01-30T06:35:21;98023.84;;;-2.15;100.00
70954;BME280;58618;47.490;8.736;2024-01-30T06:38:09;98024.00;;;-2.17;100.00
70954;BME280;58618;47.490;8.736;2024-01-30T06:40:56;98028.44;;;-2.10;100.00
70954;BME280;58618;47.490;8.736;2024-01-30T06:43:43;98033.53;;;-1.94;100.00
70954;BME280;58618;47.490;8.736;2024-01-30T06:46:32;98020.09;;;-2.03;100.00
70954;BME280;58618;47.490;8.736;2024-01-30T06:49:19;98037.63;;;-1.93;100.00
70954;BME280;58618;47.490;8.736;2024-01-30T06:52:09;98032.25;;;-1.98;100.00
70954;BME280;58618;47.490;8.736;2024-01-30T06:54:57;98032.88;;;-2.04;100.00
70954;BME280;58618;47.490;8.736;2024-01-30T06:57:44;98028.47;;;-2.02;100.00
70954;BME280;58618;47.490;8.736;2024-01-30T07:00:31;98030.69;;;-1.91;100.00
70954;BME280;58618;47.490;8.736;2024-01-30T07:03:19;98035.25;;;-2.03;100.00
70954;BME280;58618;47.490;8.736;2024-01-30T07:06:06;98030.00;;;-2.09;100.00
70954;BME280;58618;47.490;8.736;2024-01-30T07:08:55;98044.28;;;-1.84;100.00
70954;BME280;58618;47.490;8.736;2024-01-30T07:11:42;98043.50;;;-1.68;100.00
70954;BME280;58618;47.490;8.736;2024-01-30T07:14:30;98047.78;;;-1.69;100.00
70954;BME280;58618;47.490;8.736;2024-01-30T07:17:17;98045.59;;;-1.64;100.00
70954;BME280;58618;47.490;8.736;2024-01-30T07:20:06;98042.72;;;-1.53;100.00
70954;BME280;58618;47.490;8.736;2024-01-30T07:22:53;98046.22;;;-1.54;100.00
70954;BME280;58618;47.490;8.736;2024-01-30T07:25:42;98047.47;;;-1.42;100.00
70954;BME280;58618;47.490;8.736;2024-01-30T07:28:29;98047.78;;;-1.29;100.00
70954;BME280;58618;47.490;8.736;2024-01-30T07:31:17;98043.22;;;-1.33;100.00
70954;BME280;58618;47.490;8.736;2024-01-30T07:34:06;98047.47;;;-1.34;100.00
70954;BME280;58618;47.490;8.736;2024-01-30T07:36:54;98052.72;;;-1.27;100.00
70954;BME280;58618;47.490;8.736;2024-01-30T07:39:41;98056.03;;;-1.35;100.00
70954;BME280;58618;47.490;8.736;2024-01-30T07:42:30;98048.41;;;-1.43;100.00
70954;BME280;58618;47.490;8.736;2024-01-30T07:45:17;98054.44;;;-1.36;100.00
70954;BME280;58618;47.490;8.736;2024-01-30T07:48:08;98055.25;;;-1.27;100.00
70954;BME280;58618;47.490;8.736;2024-01-30T07:50:55;98066.44;;;-1.05;100.00
70954;BME280;58618;47.490;8.736;2024-01-30T07:53:43;98064.50;;;-0.87;100.00
70954;BME280;58618;47.490;8.736;2024-01-30T07:56:31;98065.56;;;-0.73;100.00
70954;BME280;58618;47.490;8.736;2024-01-30T07:59:19;98064.13;;;-0.68;100.00
70954;BME280;58618;47.490;8.736;2024-01-30T08:02:11;98060.59;;;-0.51;100.00
70954;BME280;58618;47.490;8.736;2024-01-30T08:04:59;98064.69;;;-0.33;100.00
70954;BME280;58618;47.490;8.736;2024-01-30T08:07:46;98063.16;;;-0.51;100.00
70954;BME280;58618;47.490;8.736;2024-01-30T08:10:34;98057.84;;;-0.33;100.00
70954;BME280;58618;47.490;8.736;2024-01-30T08:13:21;98058.19;;;-0.36;100.00
70954;BME280;58618;47.490;8.736;2024-01-30T08:16:10;98054.47;;;-0.25;100.00
70954;BME280;58618;47.490;8.736;2024-01-30T08:18:57;98058.91;;;-0.58;100.00
70954;BME280;58618;47.490;8.736;2024-01-30T08:21:44;98066.03;;;-0.54;100.00
70954;BME280;58618;47.490;8.736;2024-01-30T08:24:32;98061.78;;;-0.30;100.00
70954;BME280;58618;47.490;8.736;2024-01-30T08:27:19;98064.25;;;-0.06;100.00
70954;BME280;58618;47.490;8.736;2024-01-30T08:30:07;98072.13;;;-0.01;100.00
70954;BME280;58618;47.490;8.736;2024-01-30T08:32:56;98065.38;;;0.14;100.00
70954;BME280;58618;47.490;8.736;2024-01-30T08:35:43;98068.53;;;0.16;100.00
70954;BME280;58618;47.490;8.736;2024-01-30T08:38:31;98051.75;;;0.15;100.00
70954;BME280;58618;47.490;8.736;2024-01-30T08:41:18;98065.28;;;0.30;100.00
70954;BME280;58618;47.490;8.736;2024-01-30T08:44:05;98069.00;;;0.42;100.00
70954;BME280;58618;47.490;8.736;2024-01-30T08:46:53;98067.09;;;0.67;100.00
70954;BME280;58618;47.490;8.736;2024-01-30T08:49:42;98065.94;;;0.70;100.00
70954;BME280;58618;47.490;8.736;2024-01-30T08:52:30;98060.25;;;0.68;100.00
70954;BME280;58618;47.490;8.736;2024-01-30T08:55:18;98067.22;;;0.89;100.00
70954;BME280;58618;47.490;8.736;2024-01-30T08:58:06;98069.09;;;0.95;100.00
70954;BME280;58618;47.490;8.736;2024-01-30T09:00:54;98072.00;;;1.21;100.00
70954;BME280;58618;47.490;8.736;2024-01-30T09:03:41;98072.97;;;1.20;100.00
70954;BME280;58618;47.490;8.736;2024-01-30T09:06:33;98071.28;;;1.12;100.00
70954;BME280;58618;47.490;8.736;2024-01-30T09:09:20;98066.19;;;1.12;100.00
70954;BME280;58618;47.490;8.736;2024-01-30T09:12:08;98069.63;;;1.05;100.00
70954;BME280;58618;47.490;8.736;2024-01-30T09:14:57;98071.13;;;1.28;100.00
70954;BME280;58618;47.490;8.736;2024-01-30T09:17:45;98060.78;;;1.45;100.00
70954;BME280;58618;47.490;8.736;2024-01-30T09:20:33;98074.78;;;1.70;100.00
70954;BME280;58618;47.490;8.736;2024-01-30T09:23:21;98066.88;;;1.94;100.00
70954;BME280;58618;47.490;8.736;2024-01-30T09:26:09;98063.13;;;2.11;100.00
70954;BME280;58618;47.490;8.736;2024-01-30T09:28:56;98059.69;;;2.19;100.00
70954;BME280;58618;47.490;8.736;2024-01-30T09:31:44;98069.09;;;2.40;100.00
70954;BME280;58618;47.490;8.736;2024-01-30T09:34:31;98069.00;;;2.48;100.00
70954;BME280;58618;47.490;8.736;2024-01-30T09:37:19;98075.16;;;2.60;100.00
70954;BME280;58618;47.490;8.736;2024-01-30T09:40:08;98045.94;;;2.56;100.00
70954;BME280;58618;47.490;8.736;2024-01-30T09:42:56;98074.84;;;2.70;100.00
70954;BME280;58618;47.490;8.736;2024-01-30T09:45:46;98078.41;;;2.75;100.00
70954;BME280;58618;47.490;8.736;2024-01-30T09:48:35;98074.53;;;3.01;100.00
70954;BME280;58618;47.490;8.736;2024-01-30T09:51:23;98079.69;;;3.14;100.00
70954;BME280;58618;47.490;8.736;2024-01-30T09:54:13;98078.56;;;3.23;100.00
70954;BME280;58618;47.490;8.736;2024-01-30T09:57:03;98070.41;;;3.34;100.00
70954;BME280;58618;47.490;8.736;2024-01-30T09:59:50;98088.47;;;3.39;100.00
70954;BME280;58618;47.490;8.736;2024-01-30T10:02:40;98075.63;;;3.54;100.00
70954;BME280;58618;47.490;8.736;2024-01-30T10:05:28;98084.53;;;3.64;100.00
70954;BME280;58618;47.490;8.736;2024-01-30T10:08:20;98088.09;;;3.70;100.00
70954;BME280;58618;47.490;8.736;2024-01-30T10:11:07;98081.69;;;3.94;100.00
70954;BME280;58618;47.490;8.736;2024-01-30T10:13:56;98086.06;;;4.13;100.00
70954;BME280;58618;47.490;8.736;2024-01-30T10:16:46;98080.63;;;4.36;100.00
70954;BME280;58618;47.490;8.736;2024-01-30T10:19:33;98070.03;;;4.32;100.00
70954;BME280;58618;47.490;8.736;2024-01-30T10:22:21;98083.00;;;4.50;100.00
70954;BME280;58618;47.490;8.736;2024-01-30T10:25:09;98073.41;;;4.59;100.00
70954;BME280;58618;47.490;8.736;2024-01-30T10:27:57;98070.84;;;4.65;100.00
70954;BME280;58618;47.490;8.736;2024-01-30T10:30:45;98064.56;;;4.88;100.00
70954;BME280;58618;47.490;8.736;2024-01-30T10:33:33;98073.22;;;4.93;100.00
70954;BME280;58618;47.490;8.736;2024-01-30T10:36:23;98071.25;;;4.95;100.00
70954;BME280;58618;47.490;8.736;2024-01-30T10:39:17;98075.75;;;5.26;100.00
70954;BME280;58618;47.490;8.736;2024-01-30T10:42:05;98069.28;;;5.04;100.00
70954;BME280;58618;47.490;8.736;2024-01-30T10:45:00;98064.91;;;5.31;100.00
70954;BME280;58618;47.490;8.736;2024-01-30T10:47:53;98059.19;;;5.48;100.00
70954;BME280;58618;47.490;8.736;2024-01-30T10:50:42;98055.66;;;5.36;100.00
70954;BME280;58618;47.490;8.736;2024-01-30T10:53:31;98050.81;;;5.66;100.00
70954;BME280;58618;47.490;8.736;2024-01-30T10:56:20;98041.56;;;5.72;100.00
70954;BME280;58618;47.490;8.736;2024-01-30T10:59:08;98048.41;;;5.84;100.00
70954;BME280;58618;47.490;8.736;2024-01-30T11:01:56;98042.22;;;6.05;100.00
70954;BME280;58618;47.490;8.736;2024-01-30T11:04:46;98029.25;;;6.00;100.00
70954;BME280;58618;47.490;8.736;2024-01-30T11:07:34;98041.97;;;5.75;100.00
70954;BME280;58618;47.490;8.736;2024-01-30T11:10:24;98023.41;;;5.86;100.00
70954;BME280;58618;47.490;8.736;2024-01-30T11:13:13;98028.44;;;6.06;100.00
70954;BME280;58618;47.490;8.736;2024-01-30T11:16:02;98033.75;;;6.36;100.00
70954;BME280;58618;47.490;8.736;2024-01-30T11:18:50;98029.91;;;6.52;100.00
70954;BME280;58618;47.490;8.736;2024-01-30T11:21:42;98021.53;;;6.63;100.00
70954;BME280;58618;47.490;8.736;2024-01-30T11:24:30;98018.66;;;6.53;100.00
70954;BME280;58618;47.490;8.736;2024-01-30T11:27:17;98022.72;;;6.35;100.00
70954;BME280;58618;47.490;8.736;2024-01-30T11:30:06;98005.28;;;6.19;100.00
70954;BME280;58618;47.490;8.736;2024-01-30T11:33:00;98015.47;;;6.57;100.00
70954;BME280;58618;47.490;8.736;2024-01-30T11:35:48;98008.94;;;6.86;100.00
70954;BME280;58618;47.490;8.736;2024-01-30T11:38:37;98013.44;;;7.09;100.00
70954;BME280;58618;47.490;8.736;2024-01-30T11:41:24;98017.38;;;7.11;100.00
70954;BME280;58618;47.490;8.736;2024-01-30T11:44:12;98005.97;;;7.07;100.00
70954;BME280;58618;47.490;8.736;2024-01-30T11:47:00;98007.06;;;7.18;100.00
70954;BME280;58618;47.490;8.736;2024-01-30T11:49:49;98005.81;;;7.20;100.00
70954;BME280;58618;47.490;8.736;2024-01-30T11:52:36;98005.88;;;7.14;100.00
70954;BME280;58618;47.490;8.736;2024-01-30T11:55:25;97996.91;;;7.05;100.00
70954;BME280;58618;47.490;8.736;2024-01-30T11:58:12;98000.75;;;6.96;100.00
70954;BME280;58618;47.490;8.736;2024-01-30T12:01:00;97995.00;;;7.18;100.00
70954;BME280;58618;47.490;8.736;2024-01-30T12:03:49;97984.00;;;7.30;100.00
70954;BME280;58618;47.490;8.736;2024-01-30T12:06:37;97999.72;;;7.40;100.00
70954;BME280;58618;47.490;8.736;2024-01-30T12:09:24;98001.00;;;7.49;100.00
70954;BME280;58618;47.490;8.736;2024-01-30T12:12:14;97996.41;;;7.51;100.00
70954;BME280;58618;47.490;8.736;2024-01-30T12:15:02;97995.72;;;7.44;100.00
70954;BME280;58618;47.490;8.736;2024-01-30T12:17:50;97991.13;;;7.46;100.00
70954;BME280;58618;47.490;8.736;2024-01-30T12:20:37;97977.38;;;7.58;100.00
70954;BME280;58618;47.490;8.736;2024-01-30T12:23:25;97986.69;;;7.71;100.00
70954;BME280;58618;47.490;8.736;2024-01-30T12:26:13;97980.16;;;7.20;100.00
70954;BME280;58618;47.490;8.736;2024-01-30T12:29:03;97978.09;;;7.11;100.00
70954;BME280;58618;47.490;8.736;2024-01-30T12:31:53;97971.16;;;7.66;100.00
70954;BME280;58618;47.490;8.736;2024-01-30T12:34:41;97971.97;;;7.78;100.00
70954;BME280;58618;47.490;8.736;2024-01-30T12:37:29;97957.97;;;7.92;100.00
70954;BME280;58618;47.490;8.736;2024-01-30T12:40:17;97964.59;;;8.12;100.00
70954;BME280;58618;47.490;8.736;2024-01-30T12:43:05;97961.38;;;8.28;100.00
70954;BME280;58618;47.490;8.736;2024-01-30T12:45:53;97963.13;;;8.69;100.00
70954;BME280;58618;47.490;8.736;2024-01-30T12:48:41;97964.56;;;8.53;100.00
70954;BME280;58618;47.490;8.736;2024-01-30T12:51:28;97964.38;;;8.66;100.00
70954;BME280;58618;47.490;8.736;2024-01-30T12:54:16;97964.69;;;8.58;100.00
70954;BME280;58618;47.490;8.736;2024-01-30T12:57:04;97958.97;;;8.91;100.00
70954;BME280;58618;47.490;8.736;2024-01-30T12:59:51;97949.16;;;8.53;100.00
70954;BME280;58618;47.490;8.736;2024-01-30T13:02:40;97953.84;;;8.56;100.00
70954;BME280;58618;47.490;8.736;2024-01-30T13:05:28;97956.09;;;8.87;100.00
70954;BME280;58618;47.490;8.736;2024-01-30T13:08:16;97969.28;;;9.03;100.00
70954;BME280;58618;47.490;8.736;2024-01-30T13:11:04;97972.31;;;8.88;100.00
70954;BME280;58618;47.490;8.736;2024-01-30T13:13:51;97964.75;;;9.10;100.00
70954;BME280;58618;47.490;8.736;2024-01-30T13:16:38;97965.47;;;8.94;100.00
70954;BME280;58618;47.490;8.736;2024-01-30T13:19:27;97954.31;;;8.76;100.00
70954;BME280;58618;47.490;8.736;2024-01-30T13:22:15;97955.97;;;8.82;100.00
70954;BME280;58618;47.490;8.736;2024-01-30T13:25:02;97956.97;;;8.58;100.00
70954;BME280;58618;47.490;8.736;2024-01-30T13:27:50;97949.16;;;8.53;100.00
70954;BME280;58618;47.490;8.736;2024-01-30T13:30:37;97952.63;;;8.70;100.00
70954;BME280;58618;47.490;8.736;2024-01-30T13:33:26;97952.84;;;8.69;100.00
70954;BME280;58618;47.490;8.736;2024-01-30T13:36:15;97947.13;;;8.78;100.00
70954;BME280;58618;47.490;8.736;2024-01-30T13:39:02;97948.03;;;8.49;100.00
70954;BME280;58618;47.490;8.736;2024-01-30T13:41:51;97950.25;;;8.34;100.00
70954;BME280;58618;47.490;8.736;2024-01-30T13:44:38;97952.44;;;8.19;100.00
70954;BME280;58618;47.490;8.736;2024-01-30T13:47:26;97955.66;;;8.02;100.00
70954;BME280;58618;47.490;8.736;2024-01-30T13:50:13;97947.72;;;8.16;100.00
70954;BME280;58618;47.490;8.736;2024-01-30T13:53:04;97952.19;;;8.09;100.00
70954;BME280;58618;47.490;8.736;2024-01-30T13:55:51;97957.09;;;8.10;100.00
70954;BME280;58618;47.490;8.736;2024-01-30T13:58:38;97954.41;;;8.05;100.00
70954;BME280;58618;47.490;8.736;2024-01-30T14:01:26;97948.59;;;8.10;100.00
70954;BME280;58618;47.490;8.736;2024-01-30T14:04:13;97956.13;;;7.81;100.00
70954;BME280;58618;47.490;8.736;2024-01-30T14:07:01;97961.69;;;7.78;100.00
70954;BME280;58618;47.490;8.736;2024-01-30T14:09:50;97964.31;;;7.60;100.00
70954;BME280;58618;47.490;8.736;2024-01-30T14:12:37;97962.53;;;7.60;100.00
70954;BME280;58618;47.490;8.736;2024-01-30T14:15:25;97960.69;;;7.49;100.00
70954;BME280;58618;47.490;8.736;2024-01-30T14:18:12;97962.41;;;7.55;100.00
70954;BME280;58618;47.490;8.736;2024-01-30T14:21:00;97954.66;;;7.44;100.00
70954;BME280;58618;47.490;8.736;2024-01-30T14:23:47;97957.31;;;7.19;100.00
70954;BME280;58618;47.490;8.736;2024-01-30T14:26:36;97966.34;;;7.21;100.00
70954;BME280;58618;47.490;8.736;2024-01-30T14:29:24;97966.66;;;7.13;100.00
70954;BME280;58618;47.490;8.736;2024-01-30T14:32:11;97966.06;;;7.11;100.00
70954;BME280;58618;47.490;8.736;2024-01-30T14:34:58;97969.03;;;6.90;100.00
70954;BME280;58618;47.490;8.736;2024-01-30T14:37:45;97972.25;;;6.86;100.00
70954;BME280;58618;47.490;8.736;2024-01-30T14:40:33;97972.16;;;6.74;100.00
70954;BME280;58618;47.490;8.736;2024-01-30T14:43:22;97974.72;;;6.74;100.00